Time;durP1;ratioP1;P1;durP2;ratioP2;P2;SDS_P1;SDS_P2;PMS_P1;PMS_P2;Temp;Humidity;BMP_temperature;BMP_pressure;BME280_temperature;BME280_humidity;BME280_pressure;Samples;Min_cycle;Max_cycle;Signal;HPM_P1;HPM_P2
2023/04/28 00:01:44;;;;;;;9.60;6.03;;;9.50;82.00;;;;;;4974611;28;20098;-77
2023/04/28 00:04:34;;;;;;;7.97;5.80;;;9.20;81.20;;;;;;4972500;28;20051;-73
2023/04/28 00:07:19;;;;;;;12.93;6.88;;;9.20;81.30;;;;;;4986029;28;20147;-74
2023/04/28 00:10:42;;;;;;;8.00;6.40;;;9.40;82.00;;;;;;4952582;29;20110;-74
2023/04/28 00:13:19;;;;;;;10.15;7.30;;;9.60;82.50;;;;;;4942964;29;20055;-75
2023/04/28 00:16:11;;;;;;;10.43;7.20;;;9.80;83.70;;;;;;4967314;28;20500;-73
2023/04/28 00:19:27;;;;;;;8.32;7.38;;;9.80;84.30;;;;;;4970706;28;20068;-77
2023/04/28 00:22:14;;;;;;;9.82;6.85;;;9.80;84.90;;;;;;4963853;28;20134;-74
2023/04/28 00:24:41;;;;;;;14.52;7.38;;;9.90;84.70;;;;;;4974891;28;20437;-75
2023/04/28 00:27:09;;;;;;;9.73;6.70;;;9.90;87.20;;;;;;4965676;28;20047;-74
2023/04/28 00:29:55;;;;;;;11.10;6.95;;;9.60;84.50;;;;;;4965962;28;20091;-74
2023/04/28 00:32:49;;;;;;;10.20;7.43;;;9.70;89.20;;;;;;4991984;28;20050;-73
2023/04/28 00:35:58;;;;;;;11.23;8.18;;;9.30;92.60;;;;;;4965119;28;20047;-74
2023/04/28 00:38:55;;;;;;;12.70;8.75;;;9.20;94.40;;;;;;4953244;28;20042;-73
2023/04/28 00:42:11;;;;;;;14.00;8.88;;;9.20;95.40;;;;;;4989368;28;20050;-72
2023/04/28 00:44:40;;;;;;;12.02;9.32;;;8.90;99.10;;;;;;4964710;28;20047;-71
2023/04/28 00:47:12;;;;;;;14.23;9.82;;;9.00;99.90;;;;;;4980517;28;20050;-73
2023/04/28 00:49:48;;;;;;;14.10;9.85;;;9.00;99.90;;;;;;4967542;28;20047;-72
2023/04/28 00:52:21;;;;;;;12.32;9.07;;;8.90;99.90;;;;;;4978407;28;20142;-72
2023/04/28 00:54:57;;;;;;;13.13;9.63;;;8.80;99.90;;;;;;4985281;28;20058;-76
2023/04/28 00:57:26;;;;;;;15.10;10.38;;;9.00;99.90;;;;;;4953491;29;20071;-76
2023/04/28 01:00:00;;;;;;;16.20;10.18;;;8.90;99.90;;;;;;4956869;28;20035;-76
2023/04/28 01:02:30;;;;;;;16.38;10.23;;;8.90;99.90;;;;;;4973896;28;20117;-73
2023/04/28 01:05:19;;;;;;;15.32;9.73;;;8.90;99.90;;;;;;4971305;28;20042;-72
2023/04/28 01:08:30;;;;;;;13.90;9.45;;;8.90;99.90;;;;;;4978240;28;20099;-73
2023/04/28 01:11:21;;;;;;;12.65;9.68;;;8.60;99.90;;;;;;4974354;28;20058;-74
2023/04/28 01:14:11;;;;;;;14.55;9.88;;;8.50;99.90;;;;;;4965088;28;20050;-78
2023/04/28 01:16:55;;;;;;;19.60;9.85;;;8.30;99.90;;;;;;4962632;28;20042;-76
2023/04/28 01:19:25;;;;;;;14.52;9.90;;;8.10;99.90;;;;;;4978964;28;20035;-73
2023/04/28 01:21:53;;;;;;;14.90;9.68;;;8.30;99.90;;;;;;4970353;28;20433;-74
2023/04/28 01:24:34;;;;;;;13.15;9.48;;;8.40;99.90;;;;;;4970507;28;20035;-77
2023/04/28 01:27:17;;;;;;;16.02;9.98;;;8.40;99.90;;;;;;4974790;28;20062;-73
2023/04/28 01:29:59;;;;;;;15.13;10.02;;;8.40;99.90;;;;;;4958803;28;20370;-74
2023/04/28 01:32:45;;;;;;;13.15;10.45;;;8.50;99.90;;;;;;4950130;28;20030;-73
2023/04/28 01:35:26;;;;;;;13.05;9.82;;;8.50;99.90;;;;;;4990498;28;20039;-71
2023/04/28 01:38:00;;;;;;;15.00;10.15;;;8.20;99.90;;;;;;4973401;28;20070;-75
2023/04/28 01:40:41;;;;;;;12.65;9.85;;;8.40;99.90;;;;;;4980773;28;20035;-73
2023/04/28 01:43:22;;;;;;;10.65;9.07;;;8.30;99.90;;;;;;4966537;28;20124;-74
2023/04/28 01:45:55;;;;;;;18.23;10.00;;;8.50;99.90;;;;;;4959267;28;20106;-72
2023/04/28 01:48:23;;;;;;;14.10;9.25;;;8.30;99.90;;;;;;4984973;28;20058;-73
2023/04/28 01:50:51;;;;;;;11.00;8.93;;;8.20;99.90;;;;;;4976220;28;20404;-75
2023/04/28 01:53:19;;;;;;;13.23;9.50;;;8.20;99.90;;;;;;4957951;28;20053;-74
2023/04/28 01:55:47;;;;;;;16.58;9.32;;;8.30;99.90;;;;;;4984477;28;20065;-74
2023/04/28 01:58:25;;;;;;;13.57;9.07;;;8.30;99.90;;;;;;4958810;28;20036;-73
2023/04/28 02:01:13;;;;;;;12.82;9.88;;;8.40;99.90;;;;;;4959661;28;20055;-72
2023/04/28 02:04:19;;;;;;;16.30;9.63;;;8.30;99.90;;;;;;4979883;28;20043;-73
2023/04/28 02:07:35;;;;;;;15.70;9.70;;;8.10;99.90;;;;;;4988699;28;20043;-74
2023/04/28 02:10:44;;;;;;;14.98;9.90;;;7.90;99.90;;;;;;4971319;28;20124;-72
2023/04/28 02:13:23;;;;;;;11.02;9.82;;;8.00;99.90;;;;;;4975494;28;20070;-73
2023/04/28 02:16:24;;;;;;;17.85;9.82;;;8.00;99.90;;;;;;4961460;28;20046;-74
2023/04/28 02:18:52;;;;;;;10.60;9.45;;;7.90;99.90;;;;;;4970174;28;20039;-72
2023/04/28 02:21:21;;;;;;;16.02;11.02;;;8.00;99.90;;;;;;4973518;28;20101;-80
2023/04/28 02:23:51;;;;;;;13.23;10.00;;;7.90;99.90;;;;;;4963053;28;20114;-73
2023/04/28 02:26:21;;;;;;;13.35;10.35;;;7.90;99.90;;;;;;4974140;28;20050;-74
2023/04/28 02:29:11;;;;;;;11.40;9.15;;;7.90;99.90;;;;;;4973804;28;20058;-72
2023/04/28 02:32:14;;;;;;;16.13;10.18;;;8.00;99.90;;;;;;4940200;28;20043;-72
2023/04/28 02:35:02;;;;;;;14.45;9.48;;;7.80;99.90;;;;;;4974054;28;20054;-74
2023/04/28 02:37:30;;;;;;;16.85;9.48;;;7.80;99.90;;;;;;4962111;28;20505;-73
2023/04/28 02:40:07;;;;;;;14.73;9.77;;;7.90;99.90;;;;;;4958208;28;20040;-76
2023/04/28 02:42:58;;;;;;;11.68;9.82;;;8.00;99.90;;;;;;4969967;28;20075;-74
2023/04/28 02:45:44;;;;;;;14.18;9.38;;;7.70;99.90;;;;;;4958042;28;20040;-74
2023/04/28 02:48:40;;;;;;;10.82;8.75;;;7.80;99.90;;;;;;4961579;28;20095;-74
2023/04/28 02:51:15;;;;;;;10.82;8.85;;;8.00;99.90;;;;;;4985329;28;20074;-73
2023/04/28 02:54:01;;;;;;;14.38;9.32;;;8.10;99.90;;;;;;4958481;28;20051;-79
2023/04/28 02:59:45;;;;;;;11.57;9.23;;;7.60;99.90;;;;;;4970706;28;20085;-75
2023/04/28 03:02:26;;;;;;;13.98;9.55;;;7.70;99.90;;;;;;4926022;29;20075;-74
2023/04/28 03:04:54;;;;;;;15.23;10.05;;;7.80;99.90;;;;;;4947930;28;20039;-81
2023/04/28 03:07:28;;;;;;;16.75;9.90;;;7.90;99.90;;;;;;4954329;29;20063;-74
2023/04/28 03:09:55;;;;;;;20.55;10.10;;;7.80;99.90;;;;;;4975781;28;21024;-76
2023/04/28 03:12:40;;;;;;;14.30;9.65;;;7.80;99.90;;;;;;4961612;28;20054;-73
2023/04/28 03:15:09;;;;;;;16.98;9.50;;;7.40;99.90;;;;;;4964321;28;20107;-75
2023/04/28 03:17:42;;;;;;;;;;;7.50;99.90;;;;;;4977504;28;20046;-73
2023/04/28 03:20:12;;;;;;;12.57;9.73;;;7.70;99.90;;;;;;5005149;28;19922;-74
2023/04/28 03:23:15;;;;;;;14.23;9.65;;;7.70;99.90;;;;;;4984478;28;20122;-75
2023/04/28 03:25:42;;;;;;;12.50;8.18;;;7.60;99.90;;;;;;4978418;28;20040;-73
2023/04/28 03:28:10;;;;;;;11.05;7.88;;;7.20;99.90;;;;;;4951672;28;20044;-74
2023/04/28 03:30:46;;;;;;;13.18;8.85;;;7.00;99.90;;;;;;4978823;28;20062;-75
2023/04/28 03:33:25;;;;;;;16.00;8.48;;;7.40;99.90;;;;;;4953272;28;20058;-74
2023/04/28 03:35:54;;;;;;;11.70;8.38;;;7.50;99.90;;;;;;4983848;28;20106;-74
2023/04/28 03:38:21;;;;;;;12.55;8.52;;;7.70;99.90;;;;;;4964918;28;20047;-75
2023/04/28 03:40:48;;;;;;;9.85;8.30;;;7.80;99.90;;;;;;4967108;28;20577;-73
2023/04/28 03:43:16;;;;;;;10.85;8.18;;;7.70;99.90;;;;;;4946116;28;20043;-74
2023/04/28 03:45:43;;;;;;;10.48;7.25;;;7.70;99.90;;;;;;4955892;28;20106;-74
2023/04/28 03:48:10;;;;;;;12.25;7.65;;;7.70;99.90;;;;;;4966868;28;20039;-73
2023/04/28 03:50:39;;;;;;;10.25;7.90;;;7.80;99.90;;;;;;4948118;29;20046;-77
2023/04/28 03:53:27;;;;;;;11.63;8.40;;;7.90;99.90;;;;;;4962824;29;20039;-78
2023/04/28 03:56:01;;;;;;;10.60;7.80;;;7.70;99.90;;;;;;4930018;29;20052;-82
2023/04/28 03:58:45;;;;;;;9.75;7.53;;;7.70;99.90;;;;;;4959725;28;20038;-74
2023/04/28 04:01:12;;;;;;;12.57;7.80;;;7.60;99.90;;;;;;4947346;28;20122;-74
2023/04/28 04:03:40;;;;;;;16.05;8.20;;;7.60;99.90;;;;;;4956995;28;20122;-74
2023/04/28 04:06:08;;;;;;;13.82;8.63;;;7.70;99.90;;;;;;4945389;28;20119;-74
2023/04/28 04:08:35;;;;;;;15.23;9.13;;;7.40;99.90;;;;;;4937657;28;20397;-73
2023/04/28 04:11:32;;;;;;;15.52;8.38;;;7.60;99.90;;;;;;4969537;28;20043;-76
2023/04/28 04:14:16;;;;;;;9.77;7.22;;;7.80;99.90;;;;;;4967589;28;20043;-74
2023/04/28 04:17:31;;;;;;;9.38;7.35;;;7.80;99.90;;;;;;4962358;28;20051;-72
2023/04/28 04:20:16;;;;;;;10.90;8.05;;;8.00;99.90;;;;;;4956840;29;20043;-74
2023/04/28 04:22:44;;;;;;;12.07;8.25;;;8.00;99.90;;;;;;4961709;28;20062;-74
2023/04/28 04:25:15;;;;;;;;;;;7.70;99.90;;;;;;4951026;28;20055;-71
2023/04/28 04:28:10;;;;;;;16.40;9.32;;;7.80;99.90;;;;;;4963852;28;19922;-72
2023/04/28 04:31:35;;;;;;;15.70;8.85;;;7.80;99.90;;;;;;4949444;28;20106;-74
2023/04/28 04:34:04;;;;;;;15.10;9.00;;;7.90;99.90;;;;;;4918587;29;20055;-72
2023/04/28 04:37:14;;;;;;;11.15;9.20;;;7.80;99.90;;;;;;4980169;23;20036;-74
2023/04/28 04:42:37;;;;;;;77.63;43.95;;;8.00;99.90;;;;;;5056315;23;20046;-76
2023/04/28 04:45:29;;;;;;;31.75;20.27;;;8.30;99.90;;;;;;4943868;28;20050;-74
2023/04/28 04:51:46;;;;;;;17.27;13.52;;;8.30;99.90;;;;;;4961053;28;20055;-73
2023/04/28 04:54:21;;;;;;;15.35;10.23;;;8.10;99.90;;;;;;4954732;29;20124;-73
2023/04/28 04:57:06;;;;;;;14.38;9.85;;;7.90;99.90;;;;;;4975692;28;20035;-73
2023/04/28 04:59:58;;;;;;;12.80;9.77;;;7.80;99.90;;;;;;4991637;28;20058;-73
2023/04/28 05:09:57;;;;;;;14.63;11.50;;;7.90;99.90;;;;;;4996988;28;20051;-73
2023/04/28 05:12:26;;;;;;;20.80;10.60;;;7.60;99.90;;;;;;4991776;28;20051;-75
2023/04/28 05:18:40;;;;;;;16.80;10.27;;;8.00;99.90;;;;;;4968262;28;20378;-73
2023/04/28 05:21:27;;;;;;;31.67;20.65;;;8.20;99.90;;;;;;4942891;29;20054;-74
2023/04/28 05:23:57;;;;;;;43.38;26.33;;;8.50;99.90;;;;;;4956288;28;20062;-74
2023/04/28 05:32:31;;;;;;;13.80;8.27;;;8.80;99.90;;;;;;4978296;28;20045;-73
2023/04/28 05:35:13;;;;;;;11.80;8.23;;;8.80;99.90;;;;;;4933871;28;20043;-74
2023/04/28 05:37:43;;;;;;;9.32;8.20;;;8.80;99.90;;;;;;4972184;28;20039;-75
2023/04/28 05:40:17;;;;;;;10.85;8.60;;;9.00;99.90;;;;;;4969606;28;20035;-71
2023/04/28 05:44:01;;;;;;;11.68;8.30;;;8.90;99.90;;;;;;4960986;28;20106;-73
2023/04/28 05:51:49;;;;;;;12.45;8.10;;;9.40;99.90;;;;;;4846099;29;20044;-76
2023/04/28 05:54:25;;;;;;;12.90;8.90;;;9.40;99.90;;;;;;4894092;29;20499;-75
2023/04/28 05:56:54;;;;;;;17.63;9.45;;;9.60;99.90;;;;;;4927285;28;20126;-73
2023/04/28 05:59:58;;;;;;;25.40;14.50;;;10.00;99.90;;;;;;4986340;28;20063;-74
2023/04/28 06:02:46;;;;;;;92.07;46.33;;;10.30;99.90;;;;;;4979410;28;20066;-74
2023/04/28 06:05:35;;;;;;;234.20;132.80;;;10.50;99.90;;;;;;4983208;28;20094;-77
2023/04/28 06:08:12;;;;;;;17.40;14.93;;;11.20;99.90;;;;;;4960603;28;20075;-75
2023/04/28 06:10:43;;;;;;;13.23;10.45;;;10.70;99.90;;;;;;4944566;28;20047;-77
2023/04/28 06:13:15;;;;;;;12.60;8.20;;;10.60;99.90;;;;;;4959164;28;20050;-76
2023/04/28 06:15:48;;;;;;;12.90;8.07;;;10.50;99.90;;;;;;4982936;23;20051;-74
2023/04/28 06:18:23;;;;;;;9.95;7.57;;;10.50;99.90;;;;;;4941653;29;20180;-72
2023/04/28 06:20:53;;;;;;;11.88;7.28;;;10.60;99.90;;;;;;4974630;28;20031;-74
2023/04/28 06:23:39;;;;;;;10.73;7.20;;;10.60;99.10;;;;;;4962702;28;20027;-76
2023/04/28 06:26:09;;;;;;;14.00;8.40;;;10.60;99.00;;;;;;4968577;23;20036;-76
2023/04/28 06:28:47;;;;;;;11.82;7.22;;;10.80;98.90;;;;;;4965814;28;20118;-78
2023/04/28 06:31:21;;;;;;;11.77;8.00;;;10.90;99.30;;;;;;4973831;28;20141;-76
2023/04/28 06:33:52;;;;;;;14.45;8.32;;;10.90;99.90;;;;;;4985606;28;20062;-75
2023/04/28 06:36:37;;;;;;;10.50;8.95;;;10.60;99.90;;;;;;4973649;28;20523;-75
2023/04/28 06:39:13;;;;;;;12.25;8.40;;;10.60;99.90;;;;;;4967784;28;20080;-76
2023/04/28 06:41:40;;;;;;;11.55;7.78;;;10.60;99.90;;;;;;4986395;28;20065;-75
2023/04/28 06:44:10;;;;;;;10.73;8.00;;;10.80;99.90;;;;;;4965578;28;20046;-74
2023/04/28 06:46:38;;;;;;;12.52;8.10;;;10.90;99.90;;;;;;4989374;28;20134;-72
2023/04/28 06:49:09;;;;;;;10.05;7.10;;;10.90;99.90;;;;;;4979506;28;20051;-76
2023/04/28 06:51:56;;;;;;;12.13;7.53;;;11.10;99.20;;;;;;4963152;28;20137;-74
2023/04/28 06:54:25;;;;;;;9.15;5.68;;;11.30;99.80;;;;;;4985799;28;20050;-76
2023/04/28 06:57:07;;;;;;;10.13;5.80;;;11.60;96.30;;;;;;4975178;28;20047;-73
2023/04/28 06:59:42;;;;;;;7.80;5.45;;;11.70;95.20;;;;;;4975343;28;20539;-75
2023/04/28 07:02:26;;;;;;;10.68;6.63;;;11.70;93.60;;;;;;4972831;28;20047;-77
2023/04/28 07:05:15;;;;;;;10.80;6.53;;;11.80;96.20;;;;;;4983024;28;20074;-76
2023/04/28 07:08:03;;;;;;;14.75;5.95;;;11.70;96.10;;;;;;4947899;28;20043;-79
2023/04/28 07:10:52;;;;;;;8.23;4.30;;;11.90;91.10;;;;;;5000025;28;20062;-75
2023/04/28 07:13:42;;;;;;;11.00;4.60;;;12.00;84.50;;;;;;4962125;28;20118;-77
2023/04/28 07:16:29;;;;;;;7.28;4.60;;;11.80;82.50;;;;;;4983183;28;20389;-75
2023/04/28 07:19:34;;;;;;;11.93;4.90;;;12.10;81.90;;;;;;4988462;28;20047;-76
2023/04/28 07:22:59;;;;;;;10.70;4.90;;;12.20;80.20;;;;;;4994228;28;20058;-77
2023/04/28 07:25:35;;;;;;;6.97;4.60;;;12.30;78.60;;;;;;4997442;28;20042;-76
2023/04/28 07:28:07;;;;;;;8.10;4.20;;;12.40;78.30;;;;;;4996796;28;20046;-76
2023/04/28 07:30:43;;;;;;;9.88;4.13;;;12.50;77.20;;;;;;4979812;28;20035;-73
2023/04/28 07:33:35;;;;;;;9.68;4.10;;;12.40;74.70;;;;;;4999976;28;20051;-76
2023/04/28 07:36:21;;;;;;;6.38;4.38;;;12.40;73.20;;;;;;5047550;23;20078;-76
2023/04/28 07:39:03;;;;;;;6.75;3.92;;;12.50;72.40;;;;;;4981592;28;20058;-77
2023/04/28 07:41:37;;;;;;;8.57;4.18;;;12.40;72.40;;;;;;4957148;28;20047;-77
2023/04/28 07:44:28;;;;;;;9.38;4.82;;;12.70;73.30;;;;;;4948259;29;20043;-74
2023/04/28 07:46:55;;;;;;;6.32;4.57;;;12.90;71.10;;;;;;4964422;28;20494;-72
2023/04/28 07:49:23;;;;;;;8.32;4.38;;;12.90;70.90;;;;;;4964635;28;20047;-73
2023/04/28 07:51:53;;;;;;;4.80;3.63;;;12.90;69.10;;;;;;4949448;28;20050;-76
2023/04/28 07:54:40;;;;;;;8.00;4.35;;;12.70;66.80;;;;;;4978682;28;20050;-74
2023/04/28 07:57:10;;;;;;;11.43;4.50;;;12.80;67.80;;;;;;5001053;28;20057;-77
2023/04/28 07:59:40;;;;;;;6.78;3.67;;;12.90;68.10;;;;;;4980000;28;20042;-75
2023/04/28 08:02:07;;;;;;;7.25;3.90;;;13.00;66.90;;;;;;4986563;28;20069;-76
2023/04/28 08:04:37;;;;;;;8.60;3.88;;;13.10;66.70;;;;;;4974874;28;20039;-76
2023/04/28 08:07:04;;;;;;;6.20;3.70;;;13.20;66.40;;;;;;4983750;28;20066;-75
2023/04/28 08:09:35;;;;;;;6.35;3.80;;;13.20;66.50;;;;;;5003250;28;20053;-79
2023/04/28 08:12:02;;;;;;;8.18;4.00;;;13.30;66.00;;;;;;4998074;28;20102;-76
2023/04/28 08:14:34;;;;;;;5.72;3.60;;;13.30;65.30;;;;;;4985745;28;20047;-76
2023/04/28 08:17:03;;;;;;;5.57;3.78;;;13.40;65.30;;;;;;4989233;28;20051;-81
2023/04/28 08:19:34;;;;;;;7.75;4.18;;;13.40;65.90;;;;;;4970829;29;20134;-76
2023/04/28 08:22:04;;;;;;;8.25;3.85;;;13.50;65.00;;;;;;4964500;28;20059;-74
2023/04/28 08:24:36;;;;;;;6.82;3.40;;;13.40;64.00;;;;;;4972062;28;20553;-78
2023/04/28 08:27:07;;;;;;;6.35;3.70;;;13.50;64.10;;;;;;4984842;28;20062;-78
2023/04/28 08:29:36;;;;;;;4.88;3.45;;;13.60;63.90;;;;;;4984462;28;20099;-74
2023/04/28 08:32:05;;;;;;;8.18;3.65;;;13.70;65.00;;;;;;4995993;28;20051;-77
2023/04/28 08:34:33;;;;;;;11.30;3.47;;;13.90;64.80;;;;;;4978952;28;20035;-79
2023/04/28 08:37:01;;;;;;;5.68;3.72;;;13.90;63.90;;;;;;4988252;28;20055;-78
2023/04/28 08:39:33;;;;;;;5.90;3.67;;;13.80;62.80;;;;;;4957945;28;20552;-78
2023/04/28 08:42:04;;;;;;;7.32;3.60;;;13.80;62.60;;;;;;4957103;28;20069;-76
2023/04/28 08:44:38;;;;;;;6.18;3.47;;;13.80;64.30;;;;;;4970529;28;20043;-77
2023/04/28 08:47:15;;;;;;;7.15;3.28;;;14.10;63.40;;;;;;4983674;28;20098;-73
2023/04/28 08:49:48;;;;;;;8.52;3.50;;;14.10;62.70;;;;;;4947687;28;20062;-76
2023/04/28 08:52:17;;;;;;;5.97;3.28;;;14.30;61.90;;;;;;4956458;28;20043;-82
2023/04/28 08:54:48;;;;;;;6.10;3.40;;;14.50;60.10;;;;;;4983551;28;20053;-75
2023/04/28 08:57:44;;;;;;;8.70;3.40;;;14.60;60.90;;;;;;4967129;28;20042;-77
2023/04/28 09:00:13;;;;;;;10.35;3.33;;;14.70;58.70;;;;;;4969983;28;20054;-75
2023/04/28 09:02:41;;;;;;;7.93;3.58;;;14.40;57.40;;;;;;4964566;28;20046;-71
2023/04/28 09:05:12;;;;;;;7.05;3.13;;;14.40;58.90;;;;;;4956104;28;20057;-79
2023/04/28 09:07:49;;;;;;;8.70;3.40;;;14.60;59.30;;;;;;4965405;28;20063;-71
2023/04/28 09:10:22;;;;;;;7.70;3.47;;;14.70;57.80;;;;;;4976761;28;20045;-73
2023/04/28 09:13:04;;;;;;;5.55;3.45;;;14.70;58.10;;;;;;4952629;28;20050;-77
2023/04/28 09:15:49;;;;;;;6.13;3.65;;;15.30;59.50;;;;;;4949067;28;20042;-76
2023/04/28 09:18:27;;;;;;;8.25;4.93;;;15.40;55.60;;;;;;4967819;29;20063;-76
2023/04/28 09:21:16;;;;;;;11.45;5.72;;;15.40;57.40;;;;;;4948822;28;20053;-79
2023/04/28 09:24:47;;;;;;;7.70;4.55;;;15.60;62.90;;;;;;4968747;28;20067;-77
2023/04/28 09:27:44;;;;;;;8.35;4.90;;;15.90;62.50;;;;;;4974863;28;20504;-78
2023/04/28 09:30:15;;;;;;;7.40;4.10;;;15.90;57.60;;;;;;4968117;28;20047;-76
2023/04/28 09:32:43;;;;;;;6.97;4.32;;;15.90;57.60;;;;;;4983501;28;20047;-74
2023/04/28 09:35:10;;;;;;;6.35;3.20;;;16.00;58.20;;;;;;4964137;28;20101;-75
2023/04/28 09:37:57;;;;;;;6.07;3.35;;;15.10;54.30;;;;;;4937719;29;20043;-76
2023/04/28 09:40:28;;;;;;;7.38;3.55;;;15.40;57.40;;;;;;4950252;29;20075;-77
2023/04/28 09:47:35;;;;;;;6.03;3.35;;;15.50;54.30;;;;;;4851746;29;20068;-78
2023/04/28 09:50:50;;;;;;;6.53;3.17;;;15.50;53.30;;;;;;4894693;29;20064;-80
2023/04/28 09:54:14;;;;;;;6.18;3.38;;;15.90;54.20;;;;;;4892064;29;20049;-75
2023/04/28 10:00:33;;;;;;;5.18;2.75;;;15.80;51.40;;;;;;4874509;29;20068;-79
2023/04/28 10:03:02;;;;;;;6.68;2.95;;;16.00;53.00;;;;;;4903512;29;20072;-76
2023/04/28 10:05:31;;;;;;;4.18;2.70;;;16.00;50.90;;;;;;4908943;29;20056;-78
2023/04/28 10:08:14;;;;;;;7.00;2.90;;;15.80;50.40;;;;;;4917939;29;20060;-78
2023/04/28 10:10:54;;;;;;;6.18;3.00;;;15.50;50.40;;;;;;4895514;29;20102;-76
2023/04/28 10:13:24;;;;;;;3.97;2.78;;;15.50;50.40;;;;;;4895973;29;20084;-76
2023/04/28 10:15:54;;;;;;;5.30;2.70;;;16.00;51.00;;;;;;4879751;29;20057;-78
2023/04/28 10:18:54;;;;;;;4.88;3.05;;;16.10;51.50;;;;;;4894057;29;20049;-79
2023/04/28 10:22:13;;;;;;;7.03;2.95;;;16.20;51.30;;;;;;4881773;29;20591;-77
2023/04/28 10:25:10;;;;;;;;;;;16.90;50.70;;;;;;4941741;29;20055;-75
2023/04/28 10:28:14;;;;;;;5.95;2.80;;;17.20;51.90;;;;;;4936184;29;19923;-80
2023/04/28 10:31:22;;;;;;;7.40;2.80;;;17.50;50.30;;;;;;4938384;29;20048;-73
2023/04/28 10:33:53;;;;;;;6.43;2.75;;;17.70;51.00;;;;;;4945164;29;20044;-81
2023/04/28 10:40:24;;;;;;;5.78;2.70;;;17.70;50.00;;;;;;5220152;23;20058;-77
2023/04/28 10:43:34;;;;;;;6.53;2.80;;;17.60;49.30;;;;;;5014136;28;20038;-77
2023/04/28 10:46:52;;;;;;;5.28;2.60;;;17.90;50.70;;;;;;4975466;28;20061;-79
2023/04/28 10:50:08;;;;;;;6.05;2.70;;;18.10;50.10;;;;;;4986105;28;20039;-81
2023/04/28 10:53:50;;;;;;;7.22;2.53;;;18.30;50.50;;;;;;4989218;28;20045;-74
2023/04/28 10:57:16;;;;;;;6.25;3.33;;;17.40;51.20;;;;;;5015651;28;20038;-76
2023/04/28 11:00:29;;;;;;;4.38;2.53;;;16.90;52.40;;;;;;4994036;28;20090;-78
2023/04/28 11:07:34;;;;;;;7.63;2.88;;;18.20;54.10;;;;;;4998716;28;20070;-77
2023/04/28 11:13:20;;;;;;;8.73;2.83;;;17.90;50.50;;;;;;4979788;28;20035;-74
2023/04/28 11:19:55;;;;;;;5.07;2.78;;;18.10;51.00;;;;;;4988367;23;20138;-76
2023/04/28 11:22:34;;;;;;;5.78;2.47;;;17.50;50.60;;;;;;4963491;28;20044;-76
2023/04/28 11:25:45;;;;;;;7.57;2.90;;;18.00;50.70;;;;;;4973137;28;20070;-78
2023/04/28 11:32:50;;;;;;;5.03;2.78;;;17.80;49.00;;;;;;4909050;29;20080;-75
2023/04/28 11:35:42;;;;;;;6.15;2.65;;;17.80;50.20;;;;;;4881505;29;20048;-77
2023/04/28 11:38:35;;;;;;;4.22;2.47;;;17.90;49.90;;;;;;4960010;28;20081;-78
2023/04/28 11:50:31;;;;;;;6.53;2.58;;;18.70;47.70;;;;;;4992960;28;20455;-78
2023/04/28 11:57:30;;;;;;;6.00;2.60;;;18.90;47.00;;;;;;4921204;29;20040;-83
2023/04/28 12:01:42;;;;;;;7.22;2.63;;;18.10;47.40;;;;;;4895858;29;20024;-78
2023/04/28 12:07:51;;;;;;;5.03;2.42;;;19.10;47.20;;;;;;5672265;23;20050;-79
2023/04/28 12:14:35;;;;;;;3.58;2.35;;;18.80;46.00;;;;;;4986616;28;20057;-84
2023/04/28 12:21:20;;;;;;;4.15;2.15;;;20.00;45.40;;;;;;4993987;28;20042;-78
2023/04/28 12:24:51;;;;;;;4.15;2.03;;;19.00;45.00;;;;;;4978947;28;20034;-77
2023/04/28 12:29:00;;;;;;;;;;;;;;;;;;;;;
2023/04/28 12:44:27;;;;;;;5.95;2.33;;;19.40;43.20;;;;;;5152517;23;20337;-76
2023/04/28 12:48:24;;;;;;;;;;;;;;;;;;;;;
2023/04/28 12:51:19;;;;;;;5.32;2.50;;;19.30;45.70;;;;;;4982715;28;20066;-76
2023/04/28 12:53:48;;;;;;;6.03;2.25;;;19.70;45.20;;;;;;4993665;28;20022;-77
2023/04/28 13:00:03;;;;;;;4.07;2.22;;;20.30;44.20;;;;;;5040772;23;20066;-79
2023/04/28 13:07:06;;;;;;;9.02;2.42;;;20.80;38.30;;;;;;5016261;28;20044;-76
2023/04/28 13:09:51;;;;;;;5.18;2.10;;;22.10;37.90;;;;;;5028488;28;20129;-78
2023/04/28 13:18:16;;;;;;;4.72;2.20;;;21.40;38.40;;;;;;5001862;28;20060;-79
2023/04/28 13:21:12;;;;;;;3.22;1.63;;;23.10;38.40;;;;;;4996356;28;20061;-79
2023/04/28 13:25:01;;;;;;;4.05;1.98;;;24.90;38.00;;;;;;4948019;28;20059;-80
2023/04/28 13:27:46;;;;;;;3.50;1.65;;;22.60;37.00;;;;;;4953039;29;20099;-79
2023/04/28 13:30:28;;;;;;;4.50;1.65;;;23.90;37.80;;;;;;4946792;29;20039;-79
2023/04/28 13:50:35;;;;;;;5.13;2.10;;;22.20;40.10;;;;;;5016436;28;20072;-79
2023/04/28 13:53:19;;;;;;;3.55;1.77;;;22.20;39.30;;;;;;4995001;28;20058;-78
2023/04/28 14:05:05;;;;;;;5.32;1.77;;;28.50;34.90;;;;;;4860991;29;20049;-79
2023/04/28 14:08:40;;;;;;;5.82;1.55;;;27.60;34.70;;;;;;4929405;28;20088;-77
2023/04/28 14:36:15;;;;;;;5.63;1.70;;;29.50;34.50;;;;;;5384792;22;20067;-78
2023/04/28 14:39:48;;;;;;;4.22;1.80;;;30.30;34.40;;;;;;5008722;28;20046;-78
2023/04/28 14:44:17;;;;;;;5.13;1.77;;;30.30;33.50;;;;;;4906800;29;20491;-83
2023/04/28 14:48:06;;;;;;;9.00;1.90;;;26.30;37.70;;;;;;4887362;29;20047;-78
2023/04/28 14:51:47;;;;;;;4.72;1.83;;;29.20;34.70;;;;;;4906443;29;20051;-82
2023/04/28 14:54:58;;;;;;;7.70;1.80;;;29.40;33.10;;;;;;5187461;23;20155;-80
2023/04/28 14:57:41;;;;;;;6.03;2.00;;;29.70;33.60;;;;;;5006964;28;20102;-78
2023/04/28 15:00:11;;;;;;;6.32;2.30;;;29.90;34.40;;;;;;4975991;28;20051;-76
2023/04/28 15:03:27;;;;;;;6.53;1.83;;;30.40;32.80;;;;;;5028360;28;20073;-75
2023/04/28 15:06:44;;;;;;;6.35;1.80;;;29.50;34.20;;;;;;5031393;28;20129;-76
2023/04/28 15:12:35;;;;;;;3.85;1.80;;;26.70;36.60;;;;;;4971797;28;20102;-79
2023/04/28 15:15:56;;;;;;;3.92;1.95;;;28.10;34.60;;;;;;5010527;28;20044;-77
2023/04/28 15:19:20;;;;;;;10.57;2.93;;;28.90;34.50;;;;;;5029589;28;20057;-83
2023/04/28 15:22:25;;;;;;;7.30;2.67;;;28.60;34.00;;;;;;5020876;28;20049;-77
2023/04/28 15:31:59;;;;;;;5.63;2.25;;;29.10;34.00;;;;;;4995200;28;20072;-78
2023/04/28 15:51:19;;;;;;;6.18;2.30;;;27.90;33.80;;;;;;4987744;28;20045;-79
2023/04/28 15:58:26;;;;;;;4.40;1.92;;;29.70;33.60;;;;;;5481383;22;20316;-80
2023/04/28 16:04:27;;;;;;;3.72;1.70;;;28.30;33.70;;;;;;5035657;28;20046;-80
2023/04/28 16:07:10;;;;;;;4.50;1.98;;;28.20;33.80;;;;;;5016327;28;20104;-80
2023/04/28 16:10:43;;;;;;;3.97;1.85;;;27.70;34.60;;;;;;5023901;28;20136;-80
2023/04/28 16:13:58;;;;;;;4.10;1.80;;;28.10;34.10;;;;;;5016432;28;20034;-82
2023/04/28 16:16:56;;;;;;;6.97;1.97;;;27.30;35.10;;;;;;4976142;28;20568;-81
2023/04/28 16:20:28;;;;;;;4.93;2.10;;;28.00;34.70;;;;;;4977175;28;20035;-77
2023/04/28 16:24:26;;;;;;;;;;;;;;;;;;;;;
2023/04/28 16:28:10;;;;;;;4.57;2.13;;;28.60;35.20;;;;;;4944367;29;20567;-77
2023/04/28 16:34:56;;;;;;;7.68;2.03;;;28.50;36.30;;;;;;4892598;29;20037;-77
2023/04/28 16:38:16;;;;;;;4.68;1.90;;;26.00;37.50;;;;;;4885615;29;20079;-79
2023/04/28 16:44:42;;;;;;;5.88;2.15;;;23.20;41.20;;;;;;4993073;28;20046;-79
2023/04/28 16:48:01;;;;;;;7.18;2.50;;;23.30;40.40;;;;;;4956639;29;20059;-77
2023/04/28 16:51:01;;;;;;;16.90;9.75;;;22.40;41.60;;;;;;4980936;28;20051;-78
2023/04/28 16:54:38;;;;;;;105.45;78.18;;;22.00;42.70;;;;;;4976657;28;20053;-77
2023/04/28 17:01:14;;;;;;;6.53;4.38;;;20.70;43.80;;;;;;5221703;22;20124;-76
2023/04/28 17:03:50;;;;;;;7.53;4.82;;;20.40;44.10;;;;;;5035185;28;20050;-80
2023/04/28 17:07:25;;;;;;;7.95;3.40;;;20.10;44.60;;;;;;5003440;28;20113;-78
2023/04/28 17:10:12;;;;;;;5.47;2.78;;;19.80;44.80;;;;;;5002481;28;20046;-79
2023/04/28 17:18:15;;;;;;;8.95;3.53;;;19.20;45.10;;;;;;5017638;28;20029;-82
2023/04/28 17:21:54;;;;;;;9.15;3.50;;;19.00;45.50;;;;;;4998855;28;20046;-81
2023/04/28 17:29:06;;;;;;;81.80;51.92;;;18.70;45.50;;;;;;5013695;28;20109;-79
2023/04/28 17:36:32;;;;;;;9.30;5.32;;;18.60;45.60;;;;;;5047809;28;20112;-76
2023/04/28 17:40:09;;;;;;;;;;;;;;;;;;;;;
2023/04/28 17:47:40;;;;;;;10.85;4.85;;;18.20;46.80;;;;;;4980223;28;20050;-77
2023/04/28 17:50:56;;;;;;;9.13;4.82;;;18.10;47.80;;;;;;5025771;28;20049;-76
2023/04/28 17:53:58;;;;;;;8.73;4.50;;;18.00;48.50;;;;;;4980365;28;20050;-78
2023/04/28 18:03:45;;;;;;;9.20;4.03;;;17.70;48.90;;;;;;4953169;26;20074;-77
2023/04/28 18:07:03;;;;;;;10.30;4.05;;;17.60;49.60;;;;;;5030298;28;20045;-79
2023/04/28 18:10:36;;;;;;;9.27;4.50;;;17.50;49.50;;;;;;5016236;28;20046;-79
2023/04/28 18:25:04;;;;;;;10.60;4.63;;;16.70;52.10;;;;;;5045903;28;20068;-77
2023/04/28 18:33:16;;;;;;;7.00;4.60;;;16.80;51.90;;;;;;5620916;22;20031;-77
2023/04/28 18:40:57;;;;;;;7.43;3.90;;;16.90;51.40;;;;;;4982590;28;20051;-75
2023/04/28 18:44:07;;;;;;;69.40;43.30;;;16.70;51.50;;;;;;5241526;23;20034;-79
2023/04/28 18:47:14;;;;;;;;;;;;;;;;;;;;;
2023/04/28 18:50:41;;;;;;;8.75;5.75;;;16.80;51.10;;;;;;4966830;28;20103;-77
2023/04/28 18:54:10;;;;;;;7.60;3.85;;;16.70;51.50;;;;;;4925943;29;20044;-77